Time;durP1;ratioP1;P1;durP2;ratioP2;P2;SDS_P1;SDS_P2;PMS_P1;PMS_P2;Temp;Humidity;BMP_temperature;BMP_pressure;BME280_temperature;BME280_humidity;BME280_pressure;Samples;Min_cycle;Max_cycle;Signal;HPM_P1;HPM_P2
2022/11/05 00:10:27;;;;;;;2.83;1.30;;;;;;;;;;10571363;27;20069;-80
2022/11/05 00:20:51;;;;;;;3.95;2.05;;;;;;;;;;10594120;27;20043;-79
2022/11/05 00:25:55;;;;;;;3.22;1.70;;;;;;;;;;10620489;27;20567;-81
2022/11/05 00:31:00;;;;;;;1.83;1.02;;;;;;;;;;10598767;27;20046;-80
2022/11/05 00:36:06;;;;;;;4.72;1.55;;;;;;;;;;10620716;27;20069;-80
2022/11/05 00:41:09;;;;;;;1.45;0.95;;;;;;;;;;10591999;27;20463;-80
2022/11/05 00:46:11;;;;;;;4.40;1.67;;;;;;;;;;10626881;27;20035;-79
2022/11/05 00:51:17;;;;;;;5.75;2.85;;;;;;;;;;10609941;27;20043;-79
2022/11/05 00:56:19;;;;;;;2.97;1.67;;;;;;;;;;10611322;27;20055;-79
2022/11/05 01:01:22;;;;;;;3.00;1.52;;;;;;;;;;10625754;27;20050;-80
2022/11/05 01:06:27;;;;;;;4.80;2.10;;;;;;;;;;10611301;27;20091;-81
2022/11/05 01:11:33;;;;;;;4.15;1.75;;;;;;;;;;10611571;27;20086;-79
2022/11/05 01:16:41;;;;;;;6.40;2.28;;;;;;;;;;10618734;27;20036;-80
2022/11/05 01:21:45;;;;;;;4.35;1.10;;;;;;;;;;10609074;27;20035;-80
2022/11/05 01:26:47;;;;;;;4.22;1.40;;;;;;;;;;10589181;28;20420;-80
2022/11/05 01:31:50;;;;;;;5.68;2.05;;;;;;;;;;10619047;28;20039;-80
2022/11/05 01:36:54;;;;;;;5.65;2.00;;;;;;;;;;10611883;28;20484;-80
2022/11/05 01:41:57;;;;;;;2.35;1.42;;;;;;;;;;10610290;27;20051;-80
2022/11/05 01:47:00;;;;;;;5.20;2.10;;;;;;;;;;10612691;28;20035;-80
2022/11/05 01:52:04;;;;;;;4.93;2.35;;;;;;;;;;10616659;27;20035;-79
2022/11/05 01:57:10;;;;;;;1.27;0.82;;;;;;;;;;10599342;27;20036;-80
2022/11/05 02:02:13;;;;;;;3.28;1.75;;;;;;;;;;10598295;28;20047;-81
2022/11/05 02:07:18;;;;;;;2.80;1.80;;;;;;;;;;10600911;28;20066;-80
2022/11/05 02:12:24;;;;;;;1.02;0.70;;;;;;;;;;10610179;27;20126;-81
2022/11/05 02:17:34;;;;;;;2.15;0.90;;;;;;;;;;10617370;27;20047;-80
2022/11/05 02:22:55;;;;;;;1.58;0.68;;;;;;;;;;10606596;27;20049;-80
2022/11/05 02:28:14;;;;;;;2.85;1.50;;;;;;;;;;10598844;27;20046;-81
2022/11/05 02:33:27;;;;;;;2.45;1.13;;;;;;;;;;10623622;27;20043;-81
2022/11/05 02:38:38;;;;;;;4.50;1.27;;;;;;;;;;10613947;27;20122;-80
2022/11/05 02:43:51;;;;;;;3.35;1.65;;;;;;;;;;10604975;27;20039;-79
2022/11/05 02:48:58;;;;;;;3.22;1.58;;;;;;;;;;10612099;27;20042;-81
2022/11/05 02:54:05;;;;;;;4.68;1.48;;;;;;;;;;10627332;27;20507;-79
2022/11/05 02:59:07;;;;;;;1.58;0.82;;;;;;;;;;10623532;27;20050;-80
2022/11/05 03:04:13;;;;;;;4.50;2.10;;;;;;;;;;10625253;27;20425;-81
2022/11/05 03:09:22;;;;;;;6.28;2.13;;;;;;;;;;10598126;27;20385;-80
2022/11/05 03:14:32;;;;;;;4.45;1.80;;;;;;;;;;10607407;27;20035;-80
2022/11/05 03:19:38;;;;;;;12.05;2.25;;;;;;;;;;10614361;27;20031;-81
2022/11/05 03:24:45;;;;;;;3.58;1.85;;;;;;;;;;10618433;27;20038;-80
2022/11/05 03:29:49;;;;;;;0.28;0.15;;;;;;;;;;10610655;27;20403;-81
2022/11/05 03:35:00;;;;;;;0.65;0.60;;;;;;;;;;10620434;27;20087;-81
2022/11/05 03:40:09;;;;;;;4.95;1.70;;;;;;;;;;10615271;27;20085;-81
2022/11/05 03:45:15;;;;;;;5.28;1.92;;;;;;;;;;10622008;27;20035;-80
2022/11/05 03:50:20;;;;;;;3.75;1.98;;;;;;;;;;10614138;27;20039;-80
2022/11/05 03:55:26;;;;;;;1.00;0.75;;;;;;;;;;10612153;27;20032;-80
2022/11/05 04:00:28;;;;;;;1.77;1.02;;;;;;;;;;10622607;27;20061;-80
2022/11/05 04:05:32;;;;;;;2.55;1.58;;;;;;;;;;10605679;27;20092;-81
2022/11/05 04:26:46;;;;;;;4.40;2.05;;;;;;;;;;10601694;27;20043;-78
2022/11/05 04:31:49;;;;;;;5.43;2.37;;;;;;;;;;10615083;27;20681;-79
2022/11/05 04:36:53;;;;;;;4.53;2.35;;;;;;;;;;10613770;27;20038;-79
2022/11/05 04:41:55;;;;;;;1.75;0.93;;;;;;;;;;10612965;27;20062;-79
2022/11/05 04:46:58;;;;;;;5.65;2.55;;;;;;;;;;10620365;27;20043;-79
2022/11/05 04:52:02;;;;;;;4.82;2.13;;;;;;;;;;10605501;27;20086;-80
2022/11/05 04:57:06;;;;;;;4.78;2.25;;;;;;;;;;10609881;27;20036;-79
2022/11/05 05:02:09;;;;;;;4.97;2.13;;;;;;;;;;10597953;27;20046;-80
2022/11/05 05:07:13;;;;;;;6.35;3.20;;;;;;;;;;10614140;27;20031;-80
2022/11/05 05:12:16;;;;;;;5.18;2.78;;;;;;;;;;10611166;27;20050;-79
2022/11/05 05:17:19;;;;;;;5.05;2.50;;;;;;;;;;10589206;28;20484;-80
2022/11/05 05:22:23;;;;;;;2.10;1.08;;;;;;;;;;10617229;28;20070;-80
2022/11/05 05:27:28;;;;;;;5.63;2.83;;;;;;;;;;10612426;27;20038;-80
2022/11/05 05:32:30;;;;;;;7.50;3.00;;;;;;;;;;10617998;28;20224;-80
2022/11/05 05:37:34;;;;;;;7.82;3.70;;;;;;;;;;10589969;28;20039;-80
2022/11/05 05:42:37;;;;;;;;;;;;;;;;;;10614214;28;20051;-80
2022/11/05 05:47:44;;;;;;;6.18;2.92;;;;;;;;;;10613873;28;19999;-80
2022/11/05 05:52:49;;;;;;;4.35;2.38;;;;;;;;;;10622365;28;20088;-80
2022/11/05 05:57:52;;;;;;;6.97;3.55;;;;;;;;;;10616138;28;20039;-80
2022/11/05 06:02:55;;;;;;;9.18;4.28;;;;;;;;;;10622411;27;20054;-81
2022/11/05 06:07:59;;;;;;;7.85;4.03;;;;;;;;;;10589886;27;20126;-80
2022/11/05 06:13:02;;;;;;;7.60;3.72;;;;;;;;;;10620806;27;20047;-80
2022/11/05 06:18:04;;;;;;;10.35;4.70;;;;;;;;;;10617103;27;20043;-80
2022/11/05 06:23:08;;;;;;;6.15;3.05;;;;;;;;;;10625388;27;20047;-80
2022/11/05 06:28:11;;;;;;;6.75;2.42;;;;;;;;;;10592714;27;20089;-79
2022/11/05 06:33:14;;;;;;;10.32;5.25;;;;;;;;;;10625698;27;20043;-80
2022/11/05 06:38:18;;;;;;;10.30;4.50;;;;;;;;;;10603654;27;20043;-79
2022/11/05 06:43:21;;;;;;;3.53;1.70;;;;;;;;;;10580430;28;20059;-80
2022/11/05 06:48:25;;;;;;;8.63;4.45;;;;;;;;;;10575700;27;20032;-80
2022/11/05 06:53:29;;;;;;;4.15;2.03;;;;;;;;;;10623796;27;20054;-80
2022/11/05 06:58:31;;;;;;;;;;;;;;;;;;10617796;27;20102;-78
2022/11/05 07:03:34;;;;;;;3.72;1.90;;;;;;;;;;10629267;27;20383;-79
2022/11/05 07:08:38;;;;;;;10.00;4.47;;;;;;;;;;10616528;27;20039;-78
2022/11/05 07:13:41;;;;;;;6.00;2.85;;;;;;;;;;10624421;27;20043;-79
2022/11/05 07:18:44;;;;;;;9.05;4.43;;;;;;;;;;10590512;27;20043;-80
2022/11/05 07:23:48;;;;;;;6.50;2.58;;;;;;;;;;10622565;27;20035;-79
2022/11/05 07:28:50;;;;;;;1.30;1.08;;;;;;;;;;10618489;27;20035;-79
2022/11/05 07:33:53;;;;;;;7.40;3.67;;;;;;;;;;10613405;27;20051;-79
2022/11/05 07:38:57;;;;;;;6.03;3.20;;;;;;;;;;10616496;27;20556;-79
2022/11/05 07:44:03;;;;;;;19.42;8.57;;;;;;;;;;10621628;27;20043;-79
2022/11/05 07:49:06;;;;;;;7.70;4.10;;;;;;;;;;10618702;27;20312;-79
2022/11/05 07:54:10;;;;;;;9.70;4.10;;;;;;;;;;10620820;27;20339;-79
2022/11/05 07:59:13;;;;;;;8.48;3.47;;;;;;;;;;10602591;27;20039;-79
2022/11/05 08:04:15;;;;;;;9.82;3.40;;;;;;;;;;10618054;27;20034;-79
2022/11/05 08:09:19;;;;;;;10.15;4.20;;;;;;;;;;10612962;27;20039;-79
2022/11/05 08:14:22;;;;;;;9.27;4.00;;;;;;;;;;10604038;27;20046;-79
2022/11/05 08:19:25;;;;;;;5.05;2.42;;;;;;;;;;10614815;27;20109;-79
2022/11/05 08:24:29;;;;;;;11.88;4.50;;;;;;;;;;10619970;27;20043;-78
2022/11/05 08:29:31;;;;;;;;;;;;;;;;;;10607877;27;20598;-78
2022/11/05 08:34:34;;;;;;;5.80;3.35;;;;;;;;;;10597471;27;19920;-79
2022/11/05 08:39:38;;;;;;;6.68;3.65;;;;;;;;;;10615320;27;20043;-78
2022/11/05 08:44:41;;;;;;;6.30;3.03;;;;;;;;;;10622291;27;20035;-79
2022/11/05 08:49:44;;;;;;;7.68;4.13;;;;;;;;;;10609258;27;20039;-79
2022/11/05 08:54:48;;;;;;;8.02;4.22;;;;;;;;;;10626846;27;20050;-79
2022/11/05 08:59:50;;;;;;;;;;;;;;;;;;10599752;27;20400;-79
2022/11/05 09:04:53;;;;;;;6.93;3.72;;;;;;;;;;10608436;27;20372;-79
2022/11/05 09:09:57;;;;;;;8.88;4.53;;;;;;;;;;10612309;27;20035;-79
2022/11/05 09:14:59;;;;;;;;;;;;;;;;;;10618409;27;20027;-79
2022/11/05 09:20:03;;;;;;;6.80;3.20;;;;;;;;;;10605900;28;19930;-79
2022/11/05 09:25:08;;;;;;;4.40;2.35;;;;;;;;;;10620076;28;20499;-79
2022/11/05 09:30:12;;;;;;;8.77;4.10;;;;;;;;;;10606361;28;20039;-78
2022/11/05 09:35:19;;;;;;;9.40;4.35;;;;;;;;;;10607164;27;20043;-78
2022/11/05 09:40:25;;;;;;;6.97;3.42;;;;;;;;;;10622404;27;20420;-79
2022/11/05 09:45:30;;;;;;;8.57;4.50;;;;;;;;;;10626204;27;20408;-79
2022/11/05 09:50:34;;;;;;;4.70;2.60;;;;;;;;;;10615304;27;20039;-80
2022/11/05 09:55:41;;;;;;;3.72;1.80;;;;;;;;;;10621736;27;20040;-79
2022/11/05 10:00:47;;;;;;;8.10;1.95;;;;;;;;;;10615189;27;20039;-79
2022/11/05 10:05:50;;;;;;;1.67;0.98;;;;;;;;;;10621408;27;20266;-79
2022/11/05 10:10:58;;;;;;;4.63;2.03;;;;;;;;;;10630107;27;20031;-79
2022/11/05 10:16:02;;;;;;;3.92;2.00;;;;;;;;;;10628092;27;20083;-79
2022/11/05 10:21:05;;;;;;;4.07;1.73;;;;;;;;;;10620033;27;20096;-80
2022/11/05 10:26:12;;;;;;;3.55;1.83;;;;;;;;;;10604857;27;20065;-79
2022/11/05 10:31:19;;;;;;;6.35;1.98;;;;;;;;;;10612615;27;20047;-79
2022/11/05 10:36:23;;;;;;;2.40;1.25;;;;;;;;;;10595301;27;20046;-78
2022/11/05 10:41:37;;;;;;;3.30;1.63;;;;;;;;;;10617260;27;20084;-79
2022/11/05 10:46:42;;;;;;;5.38;2.53;;;;;;;;;;10601192;27;20037;-79
2022/11/05 10:51:45;;;;;;;1.10;0.85;;;;;;;;;;10622476;27;20068;-79
2022/11/05 10:56:49;;;;;;;3.65;2.83;;;;;;;;;;10598018;27;20044;-79
2022/11/05 11:01:59;;;;;;;1.52;1.25;;;;;;;;;;10600676;27;20035;-79
2022/11/05 11:07:02;;;;;;;2.55;2.28;;;;;;;;;;10618512;27;20035;-79
2022/11/05 11:12:07;;;;;;;2.87;1.90;;;;;;;;;;10618169;27;20043;-79
2022/11/05 11:17:16;;;;;;;5.65;3.65;;;;;;;;;;10622543;27;20038;-79
2022/11/05 11:22:20;;;;;;;4.32;2.50;;;;;;;;;;10613232;27;20039;-79
2022/11/05 11:27:25;;;;;;;3.60;2.30;;;;;;;;;;10595210;27;20035;-79
2022/11/05 11:32:32;;;;;;;3.50;2.30;;;;;;;;;;10628142;27;20039;-80
2022/11/05 11:37:40;;;;;;;1.90;1.13;;;;;;;;;;10612024;27;20032;-79
2022/11/05 11:42:46;;;;;;;3.47;2.45;;;;;;;;;;10571158;28;20158;-79
2022/11/05 11:47:49;;;;;;;2.53;1.80;;;;;;;;;;10590796;27;20446;-79
2022/11/05 11:52:52;;;;;;;;;;;;;;;;;;10608330;27;20182;-80
2022/11/05 11:58:04;;;;;;;2.78;1.70;;;;;;;;;;10606836;27;20398;-80
2022/11/05 12:03:15;;;;;;;4.50;1.60;;;;;;;;;;10620906;27;20131;-77
2022/11/05 12:08:29;;;;;;;2.55;1.77;;;;;;;;;;10554183;28;21041;-79
2022/11/05 12:13:41;;;;;;;2.38;1.75;;;;;;;;;;10607682;27;20062;-79
2022/11/05 12:18:47;;;;;;;2.72;1.75;;;;;;;;;;10606363;27;20438;-80
2022/11/05 12:24:07;;;;;;;5.30;2.40;;;;;;;;;;10620253;27;20050;-79
2022/11/05 12:29:32;;;;;;;3.97;2.00;;;;;;;;;;10604631;27;20036;-79
2022/11/05 12:34:46;;;;;;;2.67;1.13;;;;;;;;;;10614238;27;20419;-79
2022/11/05 12:39:54;;;;;;;3.85;2.10;;;;;;;;;;10603629;27;20454;-79
2022/11/05 12:45:01;;;;;;;3.92;2.05;;;;;;;;;;10618383;27;20070;-78
2022/11/05 12:50:14;;;;;;;5.35;1.25;;;;;;;;;;10613016;27;20031;-79
2022/11/05 12:55:18;;;;;;;4.57;2.38;;;;;;;;;;10614219;27;20404;-79
2022/11/05 13:00:21;;;;;;;;;;;;;;;;;;10605393;27;20076;-79
2022/11/05 13:05:29;;;;;;;3.45;2.10;;;;;;;;;;10611677;27;20365;-78
2022/11/05 13:10:34;;;;;;;3.72;1.88;;;;;;;;;;10613607;27;20042;-79
2022/11/05 13:15:39;;;;;;;2.70;1.70;;;;;;;;;;10620082;27;20043;-79
2022/11/05 13:20:46;;;;;;;2.38;1.25;;;;;;;;;;10612511;27;20053;-80
2022/11/05 13:25:51;;;;;;;2.67;1.67;;;;;;;;;;10602826;28;20499;-79
2022/11/05 13:30:55;;;;;;;2.65;1.73;;;;;;;;;;10617740;28;20054;-79
2022/11/05 13:41:28;;;;;;;2.53;1.37;;;;;;;;;;10611025;28;20031;-78
2022/11/05 13:46:42;;;;;;;3.10;2.10;;;;;;;;;;10618590;28;20039;-79
2022/11/05 13:51:51;;;;;;;3.28;1.50;;;;;;;;;;10601969;28;20047;-78
2022/11/05 13:57:03;;;;;;;2.63;1.38;;;;;;;;;;10599593;28;20035;-79
2022/11/05 14:02:12;;;;;;;1.23;1.00;;;;;;;;;;10615193;28;20049;-79
2022/11/05 14:07:18;;;;;;;6.75;1.63;;;;;;;;;;10599878;27;20424;-79
2022/11/05 14:12:22;;;;;;;3.20;1.90;;;;;;;;;;10609967;27;20054;-77
2022/11/05 14:17:27;;;;;;;2.60;1.50;;;;;;;;;;10615899;27;20039;-79
2022/11/05 14:22:39;;;;;;;3.97;1.63;;;;;;;;;;10618428;27;20162;-78
2022/11/05 14:27:43;;;;;;;0.75;0.75;;;;;;;;;;10601611;27;20559;-79
2022/11/05 14:32:48;;;;;;;1.63;1.20;;;;;;;;;;10630197;27;20039;-79
2022/11/05 14:37:54;;;;;;;3.17;1.75;;;;;;;;;;10625915;27;20404;-79
2022/11/05 14:42:58;;;;;;;2.05;1.25;;;;;;;;;;10621871;27;20297;-79
2022/11/05 14:48:01;;;;;;;2.92;1.40;;;;;;;;;;10603177;27;20040;-79
2022/11/05 14:53:10;;;;;;;3.45;1.65;;;;;;;;;;10618748;27;20088;-79
2022/11/05 14:58:30;;;;;;;1.77;1.02;;;;;;;;;;10610222;27;20035;-79
2022/11/05 15:03:35;;;;;;;2.75;1.50;;;;;;;;;;10554908;28;20124;-79
2022/11/05 15:08:57;;;;;;;2.25;1.35;;;;;;;;;;10593566;27;20507;-78
2022/11/05 15:14:03;;;;;;;1.40;1.00;;;;;;;;;;10623176;27;20463;-79
2022/11/05 15:19:10;;;;;;;4.18;1.35;;;;;;;;;;10606983;27;20035;-78
2022/11/05 15:24:14;;;;;;;2.28;1.02;;;;;;;;;;10622678;27;20134;-78
2022/11/05 15:29:18;;;;;;;3.45;2.05;;;;;;;;;;10609709;27;20039;-78
2022/11/05 15:34:23;;;;;;;3.00;2.00;;;;;;;;;;10621646;27;20544;-79
2022/11/05 15:39:30;;;;;;;4.85;2.40;;;;;;;;;;10584817;27;20039;-79
2022/11/05 15:44:38;;;;;;;1.42;0.98;;;;;;;;;;10620752;27;20412;-79
2022/11/05 15:49:41;;;;;;;1.85;1.33;;;;;;;;;;10617326;27;20047;-79
2022/11/05 15:54:45;;;;;;;5.20;2.40;;;;;;;;;;10621537;27;20035;-79
2022/11/05 15:59:48;;;;;;;5.25;2.65;;;;;;;;;;10608442;27;20031;-79
2022/11/05 16:04:51;;;;;;;6.63;2.88;;;;;;;;;;10621068;27;20039;-79
2022/11/05 16:09:56;;;;;;;5.80;3.10;;;;;;;;;;10597679;27;20034;-79
2022/11/05 16:15:00;;;;;;;7.50;3.20;;;;;;;;;;10620558;27;20649;-79
2022/11/05 16:20:03;;;;;;;9.40;3.67;;;;;;;;;;10614500;27;20084;-79
2022/11/05 16:25:21;;;;;;;7.30;3.17;;;;;;;;;;10617030;27;20142;-80
2022/11/05 16:30:25;;;;;;;7.70;3.40;;;;;;;;;;10609913;27;20312;-79
2022/11/05 16:35:28;;;;;;;6.18;2.92;;;;;;;;;;10614840;27;20035;-80
2022/11/05 16:40:30;;;;;;;9.20;4.15;;;;;;;;;;10616029;27;20038;-78
2022/11/05 16:45:36;;;;;;;7.68;3.88;;;;;;;;;;10619475;27;20038;-78
2022/11/05 16:50:43;;;;;;;11.18;4.70;;;;;;;;;;10595895;27;20378;-78
2022/11/05 16:55:46;;;;;;;7.90;3.65;;;;;;;;;;10620048;27;20088;-79
2022/11/05 17:00:52;;;;;;;10.43;4.97;;;;;;;;;;10606058;27;20042;-79
2022/11/05 17:06:10;;;;;;;10.90;4.70;;;;;;;;;;10612441;27;20068;-80
2022/11/05 17:11:16;;;;;;;10.13;4.47;;;;;;;;;;10612755;27;20039;-79
2022/11/05 17:16:37;;;;;;;11.40;5.10;;;;;;;;;;10613503;27;20298;-81
2022/11/05 17:21:39;;;;;;;10.45;4.88;;;;;;;;;;10600088;27;20066;-80
2022/11/05 17:26:42;;;;;;;10.57;4.82;;;;;;;;;;10596750;28;20044;-79
2022/11/05 17:31:47;;;;;;;9.15;3.85;;;;;;;;;;10576539;28;20286;-80
2022/11/05 17:36:50;;;;;;;8.40;3.63;;;;;;;;;;10614329;27;20039;-80
2022/11/05 17:41:55;;;;;;;8.38;3.72;;;;;;;;;;10612661;28;20541;-80
2022/11/05 17:47:00;;;;;;;9.48;3.83;;;;;;;;;;10609425;28;20076;-79
2022/11/05 17:52:03;;;;;;;5.72;2.45;;;;;;;;;;10618754;28;20039;-80
2022/11/05 17:57:06;;;;;;;9.02;4.22;;;;;;;;;;10609691;28;20042;-80
2022/11/05 18:02:11;;;;;;;10.30;4.75;;;;;;;;;;10610798;27;20039;-81
2022/11/05 18:07:14;;;;;;;8.00;3.97;;;;;;;;;;10616706;27;20039;-80
2022/11/05 18:12:17;;;;;;;8.55;3.75;;;;;;;;;;10621743;27;20064;-79
2022/11/05 18:17:21;;;;;;;7.75;3.53;;;;;;;;;;10600796;27;20075;-80
2022/11/05 18:22:29;;;;;;;;;;;;;;;;;;10629198;27;20473;-80
2022/11/05 18:27:32;;;;;;;13.02;4.47;;;;;;;;;;10619576;27;20018;-80
2022/11/05 18:32:36;;;;;;;9.05;4.50;;;;;;;;;;10626061;27;20118;-81
2022/11/05 18:37:39;;;;;;;;;;;;;;;;;;10621252;27;20043;-80
2022/11/05 18:42:48;;;;;;;11.23;4.40;;;;;;;;;;10565252;28;19964;-80
2022/11/05 18:47:52;;;;;;;7.90;3.78;;;;;;;;;;10591445;27;20043;-79
2022/11/05 18:52:55;;;;;;;;;;;;;;;;;;10629239;27;20065;-78
2022/11/05 18:57:57;;;;;;;10.77;3.97;;;;;;;;;;10615926;27;19931;-79
2022/11/05 19:03:01;;;;;;;4.70;1.83;;;;;;;;;;10619689;27;20039;-79
2022/11/05 19:08:04;;;;;;;8.55;3.92;;;;;;;;;;10620731;27;20031;-79
2022/11/05 19:13:07;;;;;;;10.98;4.97;;;;;;;;;;10623427;27;20070;-79
2022/11/05 19:18:11;;;;;;;14.38;5.18;;;;;;;;;;10615938;27;20043;-79
2022/11/05 19:23:14;;;;;;;8.70;3.72;;;;;;;;;;10621887;27;20516;-79
2022/11/05 19:28:17;;;;;;;7.45;2.75;;;;;;;;;;10614546;27;20520;-79
2022/11/05 19:33:21;;;;;;;7.18;3.30;;;;;;;;;;10548803;27;20035;-79
2022/11/05 19:38:26;;;;;;;5.00;2.10;;;;;;;;;;10622086;27;20040;-79
2022/11/05 19:43:29;;;;;;;12.90;5.53;;;;;;;;;;10606544;27;20070;-79
2022/11/05 19:48:33;;;;;;;14.93;5.55;;;;;;;;;;10623660;27;20035;-79
2022/11/05 19:53:36;;;;;;;;;;;;;;;;;;10622347;27;20431;-79
2022/11/05 19:58:39;;;;;;;10.05;4.15;;;;;;;;;;10619719;27;19927;-79
2022/11/05 20:03:44;;;;;;;11.35;4.72;;;;;;;;;;10602676;27;20081;-80
2022/11/05 20:08:49;;;;;;;13.65;5.07;;;;;;;;;;10615117;27;20027;-80
2022/11/05 20:14:11;;;;;;;12.63;5.22;;;;;;;;;;10620080;27;20043;-80
2022/11/05 20:19:16;;;;;;;13.77;5.18;;;;;;;;;;10615106;27;20043;-80
2022/11/05 20:24:20;;;;;;;9.75;3.75;;;;;;;;;;10599309;27;20070;-80
2022/11/05 20:29:26;;;;;;;17.30;6.82;;;;;;;;;;10619512;27;20055;-80
2022/11/05 20:34:38;;;;;;;10.63;4.20;;;;;;;;;;10619064;27;20038;-80
2022/11/05 20:39:41;;;;;;;9.98;4.55;;;;;;;;;;10617129;27;20511;-80
2022/11/05 20:44:43;;;;;;;13.07;5.65;;;;;;;;;;10619595;27;20046;-80
2022/11/05 20:49:47;;;;;;;14.80;5.93;;;;;;;;;;10614148;27;20388;-80
2022/11/05 20:54:50;;;;;;;11.32;4.55;;;;;;;;;;10619824;27;20100;-80
2022/11/05 20:59:53;;;;;;;14.32;5.70;;;;;;;;;;10618203;27;20045;-80
2022/11/05 21:04:57;;;;;;;15.25;6.90;;;;;;;;;;10616951;27;20043;-79
2022/11/05 21:10:05;;;;;;;20.85;6.53;;;;;;;;;;10619342;27;20381;-79
2022/11/05 21:15:09;;;;;;;8.57;3.30;;;;;;;;;;10619961;27;20224;-81
2022/11/05 21:20:13;;;;;;;15.55;5.93;;;;;;;;;;10612660;27;20427;-79
2022/11/05 21:25:15;;;;;;;;;;;;;;;;;;10619379;27;20039;-80
2022/11/05 21:30:18;;;;;;;15.40;5.65;;;;;;;;;;10617067;28;20413;-79
2022/11/05 21:35:22;;;;;;;14.05;5.32;;;;;;;;;;10615371;27;20278;-80
2022/11/05 21:40:25;;;;;;;;;;;;;;;;;;10624203;27;20038;-80
2022/11/05 21:45:27;;;;;;;12.13;4.22;;;;;;;;;;10627941;27;19923;-79
2022/11/05 22:01:13;;;;;;;17.90;7.00;;;;;;;;;;10631424;27;20039;-78
2022/11/05 22:06:17;;;;;;;18.77;6.70;;;;;;;;;;10627125;27;20510;-80
2022/11/05 22:11:20;;;;;;;14.65;5.72;;;;;;;;;;10618851;27;20080;-80
2022/11/05 22:16:22;;;;;;;15.95;6.57;;;;;;;;;;10624654;27;20041;-80
2022/11/05 22:21:26;;;;;;;12.40;3.92;;;;;;;;;;10624906;27;20031;-80
2022/11/05 22:26:29;;;;;;;16.15;5.45;;;;;;;;;;10622289;27;20046;-80
2022/11/05 22:31:32;;;;;;;17.85;7.13;;;;;;;;;;10624452;27;20035;-80
2022/11/05 22:36:39;;;;;;;12.40;4.82;;;;;;;;;;10620915;27;20557;-80
2022/11/05 22:41:42;;;;;;;14.80;5.72;;;;;;;;;;10622321;27;20205;-80
2022/11/05 22:46:45;;;;;;;19.77;7.13;;;;;;;;;;10629302;27;20600;-78
2022/11/05 22:51:50;;;;;;;20.60;7.70;;;;;;;;;;10603674;27;20039;-79
2022/11/05 22:56:52;;;;;;;21.60;7.93;;;;;;;;;;10623973;27;20093;-79
2022/11/05 23:01:55;;;;;;;19.35;7.85;;;;;;;;;;10624427;27;20239;-79
2022/11/05 23:12:29;;;;;;;18.98;6.68;;;;;;;;;;10618303;27;20054;-78
2022/11/05 23:28:13;;;;;;;20.98;6.80;;;;;;;;;;10621269;27;20054;-80
2022/11/05 23:33:16;;;;;;;20.80;7.37;;;;;;;;;;10621923;27;20077;-79
2022/11/05 23:38:36;;;;;;;23.95;8.20;;;;;;;;;;10619309;27;20369;-80
2022/11/05 23:49:00;;;;;;;14.52;5.75;;;;;;;;;;10620845;27;20061;-80
2022/11/05 23:54:04;;;;;;;16.63;6.43;;;;;;;;;;10620988;27;20035;-80
2022/11/05 23:59:07;;;;;;;15.93;6.20;;;;;;;;;;10612185;27;20049;-80
